sensor_id;sensor_type;location;lat;lon;timestamp;noise_LAeq;noise_LA_min;noise_LA_max;noise_LA01;noise_LA95
37223;Laerm;28026;48.562;14.440;2023-08-01T00:00:34;40.71;36.98;46.10;;
37223;Laerm;28026;48.562;14.440;2023-08-01T00:03:05;39.96;35.66;44.83;;
37223;Laerm;28026;48.562;14.440;2023-08-01T00:05:36;40.97;35.66;45.42;;
37223;Laerm;28026;48.562;14.440;2023-08-01T00:08:08;42.29;37.88;50.21;;
37223;Laerm;28026;48.562;14.440;2023-08-01T00:10:42;43.80;36.20;51.03;;
37223;Laerm;28026;48.562;14.440;2023-08-01T00:13:13;41.15;36.20;46.28;;
37223;Laerm;28026;48.562;14.440;2023-08-01T00:15:44;38.57;34.69;42.65;;
37223;Laerm;28026;48.562;14.440;2023-08-01T00:18:15;38.45;35.94;41.61;;
37223;Laerm;28026;48.562;14.440;2023-08-01T00:20:45;40.09;34.31;47.96;;
37223;Laerm;28026;48.562;14.440;2023-08-01T00:23:16;43.41;36.20;47.44;;
37223;Laerm;28026;48.562;14.440;2023-08-01T00:25:47;43.53;36.20;47.26;;
37223;Laerm;28026;48.562;14.440;2023-08-01T00:28:22;43.13;35.66;47.04;;
37223;Laerm;28026;48.562;14.440;2023-08-01T00:31:08;42.95;36.20;47.10;;
37223;Laerm;28026;48.562;14.440;2023-08-01T00:33:41;43.28;36.20;47.44;;
37223;Laerm;28026;48.562;14.440;2023-08-01T00:36:12;41.57;34.69;46.73;;
37223;Laerm;28026;48.562;14.440;2023-08-01T00:38:43;43.48;36.20;47.08;;
37223;Laerm;28026;48.562;14.440;2023-08-01T00:41:14;43.90;35.66;47.59;;
37223;Laerm;28026;48.562;14.440;2023-08-01T00:43:45;43.99;35.01;47.84;;
37223;Laerm;28026;48.562;14.440;2023-08-01T00:46:17;44.06;34.69;47.77;;
37223;Laerm;28026;48.562;14.440;2023-08-01T00:48:48;43.66;36.45;47.52;;
37223;Laerm;28026;48.562;14.440;2023-08-01T00:51:19;41.66;33.44;47.65;;
37223;Laerm;28026;48.562;14.440;2023-08-01T00:53:51;41.50;33.44;47.06;;
37223;Laerm;28026;48.562;14.440;2023-08-01T00:56:23;43.10;35.04;46.91;;
37223;Laerm;28026;48.562;14.440;2023-08-01T00:58:54;42.54;32.93;47.28;;
37223;Laerm;28026;48.562;14.440;2023-08-01T01:01:25;38.61;31.68;46.89;;
37223;Laerm;28026;48.562;14.440;2023-08-01T01:03:56;38.77;30.89;44.31;;
37223;Laerm;28026;48.562;14.440;2023-08-01T01:06:54;39.44;31.68;45.04;;
37223;Laerm;28026;48.562;14.440;2023-08-01T01:09:30;39.89;32.00;45.91;;
37223;Laerm;28026;48.562;14.440;2023-08-01T01:12:02;39.55;28.67;44.58;;
37223;Laerm;28026;48.562;14.440;2023-08-01T01:14:35;39.94;31.68;45.01;;
37223;Laerm;28026;48.562;14.440;2023-08-01T01:17:06;37.88;29.92;44.76;;
37223;Laerm;28026;48.562;14.440;2023-08-01T01:19:37;36.71;29.92;53.63;;
37223;Laerm;28026;48.562;14.440;2023-08-01T01:22:10;36.76;31.68;39.58;;
37223;Laerm;28026;48.562;14.440;2023-08-01T01:24:42;36.55;28.67;39.81;;
37223;Laerm;28026;48.562;14.440;2023-08-01T01:27:17;36.52;29.92;40.13;;
37223;Laerm;28026;48.562;14.440;2023-08-01T01:29:50;36.48;29.92;39.46;;
37223;Laerm;28026;48.562;14.440;2023-08-01T01:32:23;36.53;28.67;40.13;;
37223;Laerm;28026;48.562;14.440;2023-08-01T01:34:54;36.89;30.89;40.71;;
37223;Laerm;28026;48.562;14.440;2023-08-01T01:37:24;37.64;31.68;41.30;;
37223;Laerm;28026;48.562;14.440;2023-08-01T01:39:55;37.14;30.89;50.64;;
37223;Laerm;28026;48.562;14.440;2023-08-01T01:42:26;36.71;30.89;45.51;;
37223;Laerm;28026;48.562;14.440;2023-08-01T01:44:57;36.81;31.68;39.92;;
37223;Laerm;28026;48.562;14.440;2023-08-01T01:47:28;39.86;31.68;54.43;;
37223;Laerm;28026;48.562;14.440;2023-08-01T01:49:59;41.81;32.93;52.40;;
37223;Laerm;28026;48.562;14.440;2023-08-01T01:52:30;36.97;30.89;40.71;;
37223;Laerm;28026;48.562;14.440;2023-08-01T01:55:01;37.19;32.35;41.06;;
37223;Laerm;28026;48.562;14.440;2023-08-01T01:57:31;37.27;31.68;41.82;;
37223;Laerm;28026;48.562;14.440;2023-08-01T02:00:07;37.03;30.89;44.83;;
37223;Laerm;28026;48.562;14.440;2023-08-01T02:02:40;36.97;29.92;40.03;;
37223;Laerm;28026;48.562;14.440;2023-08-01T02:05:12;40.17;32.35;50.71;;
37223;Laerm;28026;48.562;14.440;2023-08-01T02:07:43;39.53;33.90;54.41;;
37223;Laerm;28026;48.562;14.440;2023-08-01T02:10:14;38.98;32.35;49.74;;
37223;Laerm;28026;48.562;14.440;2023-08-01T02:12:44;40.61;33.44;47.04;;
37223;Laerm;28026;48.562;14.440;2023-08-01T02:15:15;40.79;33.44;45.14;;
37223;Laerm;28026;48.562;14.440;2023-08-01T02:17:46;37.56;31.68;41.48;;
37223;Laerm;28026;48.562;14.440;2023-08-01T02:20:17;42.74;33.90;48.34;;
37223;Laerm;28026;48.562;14.440;2023-08-01T02:22:48;41.50;35.04;47.00;;
37223;Laerm;28026;48.562;14.440;2023-08-01T02:25:19;38.48;30.89;45.65;;
37223;Laerm;28026;48.562;14.440;2023-08-01T02:27:50;37.20;31.68;42.22;;
37223;Laerm;28026;48.562;14.440;2023-08-01T02:30:21;43.71;34.69;52.56;;
37223;Laerm;28026;48.562;14.440;2023-08-01T02:32:52;43.51;35.94;51.43;;
37223;Laerm;28026;48.562;14.440;2023-08-01T02:35:22;40.31;33.90;45.11;;
37223;Laerm;28026;48.562;14.440;2023-08-01T02:37:54;37.82;32.35;40.89;;
37223;Laerm;28026;48.562;14.440;2023-08-01T02:40:25;38.73;32.35;45.23;;
37223;Laerm;28026;48.562;14.440;2023-08-01T02:42:57;41.82;32.93;48.12;;
37223;Laerm;28026;48.562;14.440;2023-08-01T02:45:28;42.04;36.20;47.06;;
37223;Laerm;28026;48.562;14.440;2023-08-01T02:47:59;38.68;32.35;48.36;;
37223;Laerm;28026;48.562;14.440;2023-08-01T02:50:30;38.24;33.44;42.53;;
37223;Laerm;28026;48.562;14.440;2023-08-01T02:53:01;38.38;33.44;44.62;;
37223;Laerm;28026;48.562;14.440;2023-08-01T02:55:31;40.40;34.69;44.39;;
37223;Laerm;28026;48.562;14.440;2023-08-01T02:58:02;41.67;36.20;52.46;;
37223;Laerm;28026;48.562;14.440;2023-08-01T03:00:37;41.81;35.94;54.81;;
37223;Laerm;28026;48.562;14.440;2023-08-01T03:03:08;41.65;35.66;45.14;;
37223;Laerm;28026;48.562;14.440;2023-08-01T03:05:39;38.93;32.93;53.93;;
37223;Laerm;28026;48.562;14.440;2023-08-01T03:08:10;38.67;33.44;44.03;;
37223;Laerm;28026;48.562;14.440;2023-08-01T03:10:41;38.40;32.93;45.83;;
37223;Laerm;28026;48.562;14.440;2023-08-01T03:13:12;41.68;35.04;50.24;;
37223;Laerm;28026;48.562;14.440;2023-08-01T03:15:42;40.99;35.66;44.87;;
37223;Laerm;28026;48.562;14.440;2023-08-01T03:18:13;38.06;33.44;42.03;;
37223;Laerm;28026;48.562;14.440;2023-08-01T03:20:44;42.47;35.36;51.89;;
37223;Laerm;28026;48.562;14.440;2023-08-01T03:23:15;40.90;35.36;48.54;;
37223;Laerm;28026;48.562;14.440;2023-08-01T03:25:46;41.12;35.04;54.56;;
37223;Laerm;28026;48.562;14.440;2023-08-01T03:28:17;40.88;35.66;51.19;;
37223;Laerm;28026;48.562;14.440;2023-08-01T03:30:48;39.75;34.69;48.48;;
37223;Laerm;28026;48.562;14.440;2023-08-01T03:33:21;42.26;37.32;48.74;;
37223;Laerm;28026;48.562;14.440;2023-08-01T03:35:52;45.68;34.69;76.70;;
37223;Laerm;28026;48.562;14.440;2023-08-01T03:38:23;41.28;35.94;44.98;;
37223;Laerm;28026;48.562;14.440;2023-08-01T03:40:53;39.76;32.93;58.75;;
37223;Laerm;28026;48.562;14.440;2023-08-01T03:43:24;38.85;33.44;46.48;;
37223;Laerm;28026;48.562;14.440;2023-08-01T03:45:55;39.81;33.44;63.12;;
37223;Laerm;28026;48.562;14.440;2023-08-01T03:48:26;39.82;33.90;44.62;;
37223;Laerm;28026;48.562;14.440;2023-08-01T03:50:57;40.26;35.94;44.39;;
37223;Laerm;28026;48.562;14.440;2023-08-01T03:53:28;39.91;35.36;45.36;;
37223;Laerm;28026;48.562;14.440;2023-08-01T03:55:59;42.48;33.44;58.23;;
37223;Laerm;28026;48.562;14.440;2023-08-01T03:58:30;42.14;35.66;54.09;;
37223;Laerm;28026;48.562;14.440;2023-08-01T04:01:00;42.51;35.94;55.74;;
37223;Laerm;28026;48.562;14.440;2023-08-01T04:03:32;42.48;37.32;56.31;;
37223;Laerm;28026;48.562;14.440;2023-08-01T04:06:03;44.04;38.81;53.20;;
37223;Laerm;28026;48.562;14.440;2023-08-01T04:08:33;42.44;37.52;51.56;;
37223;Laerm;28026;48.562;14.440;2023-08-01T04:11:04;41.77;37.12;50.84;;
37223;Laerm;28026;48.562;14.440;2023-08-01T04:13:35;43.23;38.81;54.67;;
37223;Laerm;28026;48.562;14.440;2023-08-01T04:16:06;41.26;35.66;49.82;;
37223;Laerm;28026;48.562;14.440;2023-08-01T04:18:37;42.75;35.94;53.49;;
37223;Laerm;28026;48.562;14.440;2023-08-01T04:21:08;41.98;37.12;50.96;;
37223;Laerm;28026;48.562;14.440;2023-08-01T04:23:40;41.73;37.52;57.04;;
37223;Laerm;28026;48.562;14.440;2023-08-01T04:26:11;42.18;37.52;57.22;;
37223;Laerm;28026;48.562;14.440;2023-08-01T04:28:42;42.91;36.69;50.61;;
37223;Laerm;28026;48.562;14.440;2023-08-01T04:31:14;43.33;35.94;68.20;;
37223;Laerm;28026;48.562;14.440;2023-08-01T04:33:45;43.03;37.32;52.59;;
37223;Laerm;28026;48.562;14.440;2023-08-01T04:36:16;42.43;37.52;56.35;;
37223;Laerm;28026;48.562;14.440;2023-08-01T04:38:47;42.34;37.12;50.88;;
37223;Laerm;28026;48.562;14.440;2023-08-01T04:41:18;42.41;37.35;52.13;;
37223;Laerm;28026;48.562;14.440;2023-08-01T04:43:49;43.33;38.21;56.42;;
37223;Laerm;28026;48.562;14.440;2023-08-01T04:46:20;44.67;37.88;71.01;;
37223;Laerm;28026;48.562;14.440;2023-08-01T04:48:50;43.14;36.45;64.18;;
37223;Laerm;28026;48.562;14.440;2023-08-01T04:51:21;64.28;38.37;96.43;;
37223;Laerm;28026;48.562;14.440;2023-08-01T04:53:52;48.53;36.69;79.56;;
37223;Laerm;28026;48.562;14.440;2023-08-01T04:56:23;39.86;35.94;44.97;;
37223;Laerm;28026;48.562;14.440;2023-08-01T04:58:54;44.24;37.12;53.31;;
37223;Laerm;28026;48.562;14.440;2023-08-01T05:01:25;43.57;38.52;53.51;;
37223;Laerm;28026;48.562;14.440;2023-08-01T05:03:56;44.36;37.12;68.07;;
37223;Laerm;28026;48.562;14.440;2023-08-01T05:06:28;42.23;37.12;58.01;;
37223;Laerm;28026;48.562;14.440;2023-08-01T05:09:00;40.62;35.36;53.28;;
37223;Laerm;28026;48.562;14.440;2023-08-01T05:11:31;42.10;35.94;56.14;;
37223;Laerm;28026;48.562;14.440;2023-08-01T05:14:02;43.21;37.12;51.99;;
37223;Laerm;28026;48.562;14.440;2023-08-01T05:16:32;42.09;37.32;52.95;;
37223;Laerm;28026;48.562;14.440;2023-08-01T05:19:03;42.22;37.52;53.30;;
37223;Laerm;28026;48.562;14.440;2023-08-01T05:21:34;42.23;37.52;48.43;;
37223;Laerm;28026;48.562;14.440;2023-08-01T05:24:05;43.03;38.74;51.30;;
37223;Laerm;28026;48.562;14.440;2023-08-01T05:26:36;42.78;38.37;48.73;;
37223;Laerm;28026;48.562;14.440;2023-08-01T05:29:07;41.89;37.70;52.04;;
37223;Laerm;28026;48.562;14.440;2023-08-01T05:31:38;41.02;37.12;47.08;;
37223;Laerm;28026;48.562;14.440;2023-08-01T05:34:09;41.81;37.32;51.47;;
37223;Laerm;28026;48.562;14.440;2023-08-01T05:36:40;45.22;39.58;57.79;;
37223;Laerm;28026;48.562;14.440;2023-08-01T05:39:10;42.59;37.88;52.10;;
37223;Laerm;28026;48.562;14.440;2023-08-01T05:41:42;41.92;37.70;59.84;;
37223;Laerm;28026;48.562;14.440;2023-08-01T05:44:13;42.78;36.69;60.84;;
37223;Laerm;28026;48.562;14.440;2023-08-01T05:46:43;41.59;35.94;50.35;;
37223;Laerm;28026;48.562;14.440;2023-08-01T05:49:14;43.74;35.94;73.01;;
37223;Laerm;28026;48.562;14.440;2023-08-01T05:51:45;43.31;38.81;53.30;;
37223;Laerm;28026;48.562;14.440;2023-08-01T05:54:16;43.48;38.05;60.73;;
37223;Laerm;28026;48.562;14.440;2023-08-01T05:56:47;44.09;37.12;63.87;;
37223;Laerm;28026;48.562;14.440;2023-08-01T05:59:18;43.12;37.88;52.82;;
37223;Laerm;28026;48.562;14.440;2023-08-01T06:01:49;44.16;36.91;76.33;;
37223;Laerm;28026;48.562;14.440;2023-08-01T06:04:20;43.29;37.12;69.65;;
37223;Laerm;28026;48.562;14.440;2023-08-01T06:06:51;42.11;37.32;60.62;;
37223;Laerm;28026;48.562;14.440;2023-08-01T06:09:22;40.44;36.45;55.43;;
37223;Laerm;28026;48.562;14.440;2023-08-01T06:11:53;42.73;36.91;52.29;;
37223;Laerm;28026;48.562;14.440;2023-08-01T06:14:24;42.10;37.12;57.12;;
37223;Laerm;28026;48.562;14.440;2023-08-01T06:16:55;40.51;36.20;50.77;;
37223;Laerm;28026;48.562;14.440;2023-08-01T06:19:26;41.20;37.12;51.43;;
37223;Laerm;28026;48.562;14.440;2023-08-01T06:21:57;46.00;38.37;66.53;;
37223;Laerm;28026;48.562;14.440;2023-08-01T06:24:28;46.44;40.80;75.83;;
37223;Laerm;28026;48.562;14.440;2023-08-01T06:26:58;43.34;39.46;53.41;;
37223;Laerm;28026;48.562;14.440;2023-08-01T06:29:29;44.60;38.37;59.86;;
37223;Laerm;28026;48.562;14.440;2023-08-01T06:32:00;46.01;37.88;73.42;;
37223;Laerm;28026;48.562;14.440;2023-08-01T06:34:31;43.15;37.52;64.43;;
37223;Laerm;28026;48.562;14.440;2023-08-01T06:37:02;42.36;38.81;54.58;;
37223;Laerm;28026;48.562;14.440;2023-08-01T06:39:34;41.46;37.88;57.41;;
37223;Laerm;28026;48.562;14.440;2023-08-01T06:42:06;41.46;37.12;63.24;;
37223;Laerm;28026;48.562;14.440;2023-08-01T06:44:37;42.25;36.20;63.03;;
37223;Laerm;28026;48.562;14.440;2023-08-01T06:47:08;42.70;37.52;64.11;;
37223;Laerm;28026;48.562;14.440;2023-08-01T06:49:39;45.39;35.94;70.77;;
37223;Laerm;28026;48.562;14.440;2023-08-01T06:52:10;53.88;36.45;75.96;;
37223;Laerm;28026;48.562;14.440;2023-08-01T06:54:41;54.81;36.20;79.13;;
37223;Laerm;28026;48.562;14.440;2023-08-01T06:57:12;40.86;35.66;61.46;;
37223;Laerm;28026;48.562;14.440;2023-08-01T06:59:42;50.18;35.66;77.25;;
37223;Laerm;28026;48.562;14.440;2023-08-01T07:02:13;47.84;35.66;74.25;;
37223;Laerm;28026;48.562;14.440;2023-08-01T07:04:46;48.28;35.36;73.89;;
37223;Laerm;28026;48.562;14.440;2023-08-01T07:07:16;45.38;37.70;65.62;;
37223;Laerm;28026;48.562;14.440;2023-08-01T07:09:47;55.74;35.94;84.49;;
37223;Laerm;28026;48.562;14.440;2023-08-01T07:12:18;50.41;35.94;74.45;;
37223;Laerm;28026;48.562;14.440;2023-08-01T07:14:49;54.29;38.21;83.81;;
37223;Laerm;28026;48.562;14.440;2023-08-01T07:17:20;49.66;36.91;83.73;;
37223;Laerm;28026;48.562;14.440;2023-08-01T07:19:51;50.29;37.32;71.61;;
37223;Laerm;28026;48.562;14.440;2023-08-01T07:22:22;54.28;37.52;79.64;;
37223;Laerm;28026;48.562;14.440;2023-08-01T07:24:54;53.83;35.66;79.98;;
37223;Laerm;28026;48.562;14.440;2023-08-01T07:27:25;49.16;36.45;70.17;;
37223;Laerm;28026;48.562;14.440;2023-08-01T07:29:56;51.52;35.36;75.69;;
37223;Laerm;28026;48.562;14.440;2023-08-01T07:32:27;58.24;38.95;82.14;;
37223;Laerm;28026;48.562;14.440;2023-08-01T07:34:58;51.96;37.88;71.94;;
37223;Laerm;28026;48.562;14.440;2023-08-01T07:37:29;57.61;39.34;81.84;;
37223;Laerm;28026;48.562;14.440;2023-08-01T07:40:00;52.08;39.21;75.82;;
37223;Laerm;28026;48.562;14.440;2023-08-01T07:42:31;58.14;38.37;80.17;;
37223;Laerm;28026;48.562;14.440;2023-08-01T07:45:02;54.43;37.70;83.03;;
37223;Laerm;28026;48.562;14.440;2023-08-01T07:47:33;55.94;36.69;79.46;;
37223;Laerm;28026;48.562;14.440;2023-08-01T07:50:05;50.46;35.66;77.40;;
37223;Laerm;28026;48.562;14.440;2023-08-01T07:52:36;57.67;37.12;82.80;;
37223;Laerm;28026;48.562;14.440;2023-08-01T07:55:07;55.46;38.37;80.81;;
37223;Laerm;28026;48.562;14.440;2023-08-01T07:57:38;56.70;37.70;82.04;;
37223;Laerm;28026;48.562;14.440;2023-08-01T08:00:10;55.75;38.87;83.63;;
37223;Laerm;28026;48.562;14.440;2023-08-01T08:02:44;50.28;38.37;79.50;;
37223;Laerm;28026;48.562;14.440;2023-08-01T08:05:15;59.38;37.52;92.63;;
37223;Laerm;28026;48.562;14.440;2023-08-01T08:07:46;60.21;38.81;83.71;;
37223;Laerm;28026;48.562;14.440;2023-08-01T08:10:17;61.68;41.30;83.37;;
37223;Laerm;28026;48.562;14.440;2023-08-01T08:12:48;63.85;43.81;91.69;;
37223;Laerm;28026;48.562;14.440;2023-08-01T08:15:20;61.61;45.86;85.28;;
37223;Laerm;28026;48.562;14.440;2023-08-01T08:17:51;59.20;45.51;81.38;;
37223;Laerm;28026;48.562;14.440;2023-08-01T08:20:21;54.41;44.69;73.19;;
37223;Laerm;28026;48.562;14.440;2023-08-01T08:22:52;54.57;44.43;76.10;;
37223;Laerm;28026;48.562;14.440;2023-08-01T08:25:23;59.12;43.86;85.77;;
37223;Laerm;28026;48.562;14.440;2023-08-01T08:27:54;56.64;46.40;76.37;;
37223;Laerm;28026;48.562;14.440;2023-08-01T08:30:25;56.86;49.15;77.10;;
37223;Laerm;28026;48.562;14.440;2023-08-01T08:32:58;57.42;48.74;73.06;;
37223;Laerm;28026;48.562;14.440;2023-08-01T08:35:31;59.54;49.52;83.91;;
37223;Laerm;28026;48.562;14.440;2023-08-01T08:38:04;61.95;45.20;84.51;;
37223;Laerm;28026;48.562;14.440;2023-08-01T08:40:40;57.95;45.63;80.64;;
37223;Laerm;28026;48.562;14.440;2023-08-01T08:43:12;55.34;44.58;74.73;;
37223;Laerm;28026;48.562;14.440;2023-08-01T08:45:45;53.39;42.53;79.43;;
37223;Laerm;28026;48.562;14.440;2023-08-01T08:48:18;57.35;41.75;83.53;;
37223;Laerm;28026;48.562;14.440;2023-08-01T08:50:51;56.18;44.31;78.03;;
37223;Laerm;28026;48.562;14.440;2023-08-01T08:53:24;53.79;43.44;68.66;;
37223;Laerm;28026;48.562;14.440;2023-08-01T08:55:55;48.69;39.08;64.59;;
37223;Laerm;28026;48.562;14.440;2023-08-01T08:58:26;56.21;38.52;85.68;;
37223;Laerm;28026;48.562;14.440;2023-08-01T09:01:00;44.99;38.95;61.41;;
37223;Laerm;28026;48.562;14.440;2023-08-01T09:03:31;51.50;38.32;77.71;;
37223;Laerm;28026;48.562;14.440;2023-08-01T09:06:40;46.41;38.05;69.23;;
37223;Laerm;28026;48.562;14.440;2023-08-01T09:09:15;48.10;36.20;72.01;;
37223;Laerm;28026;48.562;14.440;2023-08-01T09:11:50;52.87;37.32;75.98;;
37223;Laerm;28026;48.562;14.440;2023-08-01T09:14:22;55.53;39.58;80.99;;
37223;Laerm;28026;48.562;14.440;2023-08-01T09:16:53;49.95;37.52;73.15;;
37223;Laerm;28026;48.562;14.440;2023-08-01T09:19:24;56.59;37.12;85.34;;
37223;Laerm;28026;48.562;14.440;2023-08-01T09:21:58;43.74;36.91;65.30;;
37223;Laerm;28026;48.562;14.440;2023-08-01T09:24:29;44.48;35.94;66.94;;
37223;Laerm;28026;48.562;14.440;2023-08-01T09:27:05;50.28;36.69;73.75;;
37223;Laerm;28026;48.562;14.440;2023-08-01T09:29:36;49.09;38.95;74.79;;
37223;Laerm;28026;48.562;14.440;2023-08-01T09:32:14;44.53;38.21;66.84;;
37223;Laerm;28026;48.562;14.440;2023-08-01T09:34:45;50.14;38.95;75.66;;
37223;Laerm;28026;48.562;14.440;2023-08-01T09:37:16;51.31;36.45;76.24;;
37223;Laerm;28026;48.562;14.440;2023-08-01T09:39:54;57.84;35.94;84.95;;
37223;Laerm;28026;48.562;14.440;2023-08-01T09:42:26;57.71;35.94;84.49;;
37223;Laerm;28026;48.562;14.440;2023-08-01T09:44:57;60.29;35.36;84.88;;
37223;Laerm;28026;48.562;14.440;2023-08-01T09:47:37;67.47;39.58;95.18;;
37223;Laerm;28026;48.562;14.440;2023-08-01T09:50:11;64.08;37.70;88.16;;
37223;Laerm;28026;48.562;14.440;2023-08-01T09:52:43;55.42;37.88;82.91;;
37223;Laerm;28026;48.562;14.440;2023-08-01T09:55:26;59.52;36.69;86.21;;
37223;Laerm;28026;48.562;14.440;2023-08-01T09:57:59;54.00;35.04;81.75;;
37223;Laerm;28026;48.562;14.440;2023-08-01T10:00:30;55.48;37.12;87.37;;
37223;Laerm;28026;48.562;14.440;2023-08-01T10:03:03;55.58;38.81;85.93;;
37223;Laerm;28026;48.562;14.440;2023-08-01T10:05:38;46.08;37.52;66.68;;
37223;Laerm;28026;48.562;14.440;2023-08-01T10:08:13;50.07;36.91;75.65;;
37223;Laerm;28026;48.562;14.440;2023-08-01T10:10:47;54.58;39.70;79.40;;
37223;Laerm;28026;48.562;14.440;2023-08-01T10:13:23;52.43;38.81;79.46;;
37223;Laerm;28026;48.562;14.440;2023-08-01T10:15:55;60.24;39.34;87.92;;
37223;Laerm;28026;48.562;14.440;2023-08-01T10:18:29;57.81;36.20;85.94;;
37223;Laerm;28026;48.562;14.440;2023-08-01T10:21:01;53.60;36.20;77.27;;
37223;Laerm;28026;48.562;14.440;2023-08-01T10:23:36;58.78;34.69;81.13;;
37223;Laerm;28026;48.562;14.440;2023-08-01T10:26:11;58.04;36.69;84.34;;
37223;Laerm;28026;48.562;14.440;2023-08-01T10:28:51;59.80;37.12;81.39;;
37223;Laerm;28026;48.562;14.440;2023-08-01T10:31:22;56.89;35.66;84.44;;
37223;Laerm;28026;48.562;14.440;2023-08-01T10:34:13;59.89;37.70;87.53;;
37223;Laerm;28026;48.562;14.440;2023-08-01T10:36:57;54.31;35.94;77.28;;
37223;Laerm;28026;48.562;14.440;2023-08-01T10:39:29;52.91;37.88;77.09;;
37223;Laerm;28026;48.562;14.440;2023-08-01T10:42:05;50.38;35.66;80.25;;
37223;Laerm;28026;48.562;14.440;2023-08-01T10:44:45;52.88;35.04;75.44;;
37223;Laerm;28026;48.562;14.440;2023-08-01T10:47:26;59.28;34.31;81.80;;
37223;Laerm;28026;48.562;14.440;2023-08-01T10:49:58;59.64;36.91;84.66;;
37223;Laerm;28026;48.562;14.440;2023-08-01T10:52:29;48.91;36.69;73.47;;
37223;Laerm;28026;48.562;14.440;2023-08-01T10:55:04;47.57;35.04;68.61;;
37223;Laerm;28026;48.562;14.440;2023-08-01T10:57:40;47.56;35.94;76.14;;
37223;Laerm;28026;48.562;14.440;2023-08-01T11:00:18;48.16;39.34;70.07;;
37223;Laerm;28026;48.562;14.440;2023-08-01T11:02:51;43.55;37.52;57.26;;
37223;Laerm;28026;48.562;14.440;2023-08-01T11:05:22;43.49;36.45;65.51;;
37223;Laerm;28026;48.562;14.440;2023-08-01T11:08:01;45.77;37.32;70.88;;
37223;Laerm;28026;48.562;14.440;2023-08-01T11:10:33;48.82;37.12;75.14;;
37223;Laerm;28026;48.562;14.440;2023-08-01T11:13:04;43.15;37.32;63.42;;
37223;Laerm;28026;48.562;14.440;2023-08-01T12:29:25;42.83;37.12;63.75;;
37223;Laerm;28026;48.562;14.440;2023-08-01T12:31:56;56.22;37.32;77.56;;
37223;Laerm;28026;48.562;14.440;2023-08-01T12:34:26;52.04;36.10;78.65;;
37223;Laerm;28026;48.562;14.440;2023-08-01T12:36:57;42.35;37.88;53.97;;
37223;Laerm;28026;48.562;14.440;2023-08-01T12:39:28;43.38;36.56;67.08;;
37223;Laerm;28026;48.562;14.440;2023-08-01T12:41:59;43.39;36.20;67.15;;
37223;Laerm;28026;48.562;14.440;2023-08-01T12:44:30;41.29;37.52;54.38;;
37223;Laerm;28026;48.562;14.440;2023-08-01T12:47:01;43.05;37.70;57.23;;
37223;Laerm;28026;48.562;14.440;2023-08-01T12:49:32;42.77;36.69;61.97;;
37223;Laerm;28026;48.562;14.440;2023-08-01T12:52:03;42.09;38.95;54.85;;
37223;Laerm;28026;48.562;14.440;2023-08-01T12:54:34;45.49;39.21;68.71;;
37223;Laerm;28026;48.562;14.440;2023-08-01T12:57:06;51.36;43.54;66.45;;
37223;Laerm;28026;48.562;14.440;2023-08-01T12:59:37;56.03;47.52;64.03;;
37223;Laerm;28026;48.562;14.440;2023-08-01T13:02:08;56.17;45.14;72.83;;
37223;Laerm;28026;48.562;14.440;2023-08-01T13:04:39;56.90;47.54;71.91;;
37223;Laerm;28026;48.562;14.440;2023-08-01T13:07:10;58.31;51.34;75.80;;
37223;Laerm;28026;48.562;14.440;2023-08-01T13:09:41;58.89;51.72;78.90;;
37223;Laerm;28026;48.562;14.440;2023-08-01T13:12:12;59.58;46.20;91.79;;
37223;Laerm;28026;48.562;14.440;2023-08-01T13:14:43;54.39;46.02;69.49;;
37223;Laerm;28026;48.562;14.440;2023-08-01T13:17:14;56.91;47.36;77.26;;
37223;Laerm;28026;48.562;14.440;2023-08-01T13:19:45;57.31;48.77;76.22;;
37223;Laerm;28026;48.562;14.440;2023-08-01T13:22:16;58.21;53.30;70.16;;
37223;Laerm;28026;48.562;14.440;2023-08-01T13:24:47;58.58;51.59;64.11;;
37223;Laerm;28026;48.562;14.440;2023-08-01T13:27:18;56.72;48.39;63.29;;
37223;Laerm;28026;48.562;14.440;2023-08-01T13:29:49;56.43;46.52;76.82;;
37223;Laerm;28026;48.562;14.440;2023-08-01T13:32:22;57.30;50.91;66.05;;
37223;Laerm;28026;48.562;14.440;2023-08-01T13:34:53;53.81;42.71;63.59;;
37223;Laerm;28026;48.562;14.440;2023-08-01T13:37:24;48.55;40.13;59.74;;
37223;Laerm;28026;48.562;14.440;2023-08-01T13:39:57;45.81;39.34;58.85;;
37223;Laerm;28026;48.562;14.440;2023-08-01T13:42:28;45.75;38.52;58.99;;
37223;Laerm;28026;48.562;14.440;2023-08-01T13:44:59;44.18;37.70;66.85;;
37223;Laerm;28026;48.562;14.440;2023-08-01T13:47:30;58.61;38.52;88.54;;
37223;Laerm;28026;48.562;14.440;2023-08-01T13:50:01;62.82;43.68;88.95;;
37223;Laerm;28026;48.562;14.440;2023-08-01T13:52:32;60.82;45.04;83.72;;
37223;Laerm;28026;48.562;14.440;2023-08-01T13:55:04;55.43;41.46;79.11;;
37223;Laerm;28026;48.562;14.440;2023-08-01T13:57:35;57.31;38.81;81.22;;
37223;Laerm;28026;48.562;14.440;2023-08-01T14:00:07;52.16;38.37;76.39;;
37223;Laerm;28026;48.562;14.440;2023-08-01T14:02:38;55.00;37.32;83.51;;
37223;Laerm;28026;48.562;14.440;2023-08-01T14:05:09;44.12;36.45;66.59;;
37223;Laerm;28026;48.562;14.440;2023-08-01T14:07:40;46.81;37.52;75.60;;
37223;Laerm;28026;48.562;14.440;2023-08-01T14:10:11;56.61;37.52;79.97;;
37223;Laerm;28026;48.562;14.440;2023-08-01T14:12:42;48.19;37.32;69.10;;
37223;Laerm;28026;48.562;14.440;2023-08-01T14:15:13;44.60;35.94;62.51;;
37223;Laerm;28026;48.562;14.440;2023-08-01T14:17:44;44.58;37.70;65.30;;
37223;Laerm;28026;48.562;14.440;2023-08-01T14:20:18;43.47;36.69;67.03;;
37223;Laerm;28026;48.562;14.440;2023-08-01T14:22:55;41.33;36.69;60.61;;
37223;Laerm;28026;48.562;14.440;2023-08-01T14:25:29;42.02;35.04;58.02;;
37223;Laerm;28026;48.562;14.440;2023-08-01T14:28:00;41.08;36.45;57.38;;
37223;Laerm;28026;48.562;14.440;2023-08-01T14:30:31;40.50;36.45;54.99;;
37223;Laerm;28026;48.562;14.440;2023-08-01T14:33:16;40.68;36.45;54.89;;
37223;Laerm;28026;48.562;14.440;2023-08-01T14:35:54;40.79;34.69;63.95;;
37223;Laerm;28026;48.562;14.440;2023-08-01T14:38:55;51.26;34.69;79.93;;
37223;Laerm;28026;48.562;14.440;2023-08-01T14:46:01;54.83;35.94;82.29;;
37223;Laerm;28026;48.562;14.440;2023-08-01T14:48:46;52.11;36.20;78.59;;
37223;Laerm;28026;48.562;14.440;2023-08-01T14:51:17;50.26;35.36;78.71;;
37223;Laerm;28026;48.562;14.440;2023-08-01T14:53:48;42.39;37.12;52.79;;
37223;Laerm;28026;48.562;14.440;2023-08-01T14:56:19;40.37;36.20;45.20;;
37223;Laerm;28026;48.562;14.440;2023-08-01T14:58:50;42.14;35.94;52.72;;
37223;Laerm;28026;48.562;14.440;2023-08-01T15:01:21;46.52;36.45;72.97;;
37223;Laerm;28026;48.562;14.440;2023-08-01T15:03:53;45.84;37.52;66.58;;
37223;Laerm;28026;48.562;14.440;2023-08-01T15:06:32;42.25;35.04;67.80;;
37223;Laerm;28026;48.562;14.440;2023-08-01T15:09:03;44.90;35.36;62.00;;
37223;Laerm;28026;48.562;14.440;2023-08-01T15:11:35;41.41;34.31;54.59;;
37223;Laerm;28026;48.562;14.440;2023-08-01T15:14:06;42.95;35.04;65.84;;
37223;Laerm;28026;48.562;14.440;2023-08-01T15:16:37;41.65;33.44;65.69;;